createdAt,value
2019-02-15T00:00:02.895Z,73.63
2019-02-15T00:02:31.435Z,73.76
2019-02-15T00:04:59.793Z,73.94
2019-02-15T00:07:28.277Z,73.89
2019-02-15T00:09:56.776Z,73.65
2019-02-15T00:12:25.177Z,73.90
2019-02-15T00:14:53.560Z,73.96
2019-02-15T00:17:23.653Z,73.79
2019-02-15T00:19:53.673Z,73.83
2019-02-15T00:22:22.057Z,74.05
2019-02-15T00:24:52.139Z,74.01
2019-02-15T00:27:20.691Z,73.78
2019-02-15T00:29:49.117Z,73.92
2019-02-15T00:32:17.590Z,74.05
2019-02-15T00:34:46.045Z,74.12
2019-02-15T00:37:14.403Z,73.83
2019-02-15T00:39:42.882Z,73.92
2019-02-15T00:42:11.299Z,73.74
2019-02-15T00:44:39.698Z,74.11
2019-02-15T00:47:15.266Z,74.20
2019-02-15T00:49:45.599Z,74.23
2019-02-15T00:52:15.685Z,74.00
2019-02-15T00:54:45.772Z,74.18
2019-02-15T00:57:18.750Z,74.37
2019-02-15T00:59:51.207Z,74.63
2019-02-15T01:02:27.075Z,75.22
2019-02-15T01:05:00.254Z,75.54
2019-02-15T01:07:46.471Z,75.39
2019-02-15T01:10:19.483Z,75.21
2019-02-15T01:12:49.600Z,75.21
2019-02-15T01:15:18.050Z,75.00
2019-02-15T01:17:46.483Z,74.96
2019-02-15T01:20:14.942Z,74.92
2019-02-15T01:22:43.523Z,74.83
2019-02-15T01:25:12.046Z,74.64
2019-02-15T01:27:47.579Z,74.19
2019-02-15T01:30:33.677Z,74.55
2019-02-15T01:33:03.745Z,74.79
2019-02-15T01:35:33.902Z,74.82
2019-02-15T01:38:21.782Z,74.87
2019-02-15T01:40:57.742Z,74.74
2019-02-15T01:43:39.805Z,74.99
2019-02-15T01:46:08.713Z,75.09
2019-02-15T01:48:37.193Z,74.94
2019-02-15T01:51:05.706Z,74.93
2019-02-15T01:53:34.166Z,74.99
2019-02-15T01:56:02.643Z,75.17
2019-02-15T01:58:31.080Z,75.39
2019-02-15T02:00:59.626Z,75.50
2019-02-15T02:03:28.158Z,75.46
2019-02-15T02:05:56.892Z,75.43
2019-02-15T02:08:28.373Z,75.62
2019-02-15T02:10:56.971Z,75.74
2019-02-15T02:13:25.360Z,75.70
2019-02-15T02:15:53.846Z,75.62
2019-02-15T02:18:22.275Z,75.63
2019-02-15T02:20:50.756Z,75.52
2019-02-15T02:23:19.231Z,75.49
2019-02-15T02:25:47.688Z,75.43
2019-02-15T02:28:16.229Z,75.23
2019-02-15T02:30:44.649Z,75.40
2019-02-15T02:33:13.119Z,75.46
2019-02-15T02:35:41.565Z,75.47
2019-02-15T02:38:10.012Z,75.14
2019-02-15T02:40:38.526Z,75.38
2019-02-15T02:43:07.263Z,75.38
2019-02-15T02:45:35.694Z,75.15
2019-02-15T02:48:04.243Z,75.18
2019-02-15T02:50:32.651Z,74.87
2019-02-15T02:53:01.056Z,74.84
2019-02-15T02:55:29.583Z,74.99
2019-02-15T02:57:57.976Z,75.07
2019-02-15T03:00:33.175Z,74.96
2019-02-15T03:02:56.590Z,74.87
2019-02-15T03:05:24.949Z,74.86
2019-02-15T03:07:53.699Z,75.14
2019-02-15T03:10:22.154Z,75.20
2019-02-15T03:12:50.562Z,75.21
2019-02-15T03:15:19.030Z,75.19
2019-02-15T03:17:47.400Z,75.34
2019-02-15T03:20:16.064Z,75.36
2019-02-15T03:22:44.749Z,75.37
2019-02-15T03:25:13.311Z,75.41
2019-02-15T03:27:41.763Z,75.20
2019-02-15T03:30:10.391Z,75.57
2019-02-15T03:32:38.867Z,75.59
2019-02-15T03:35:09.255Z,76.16
2019-02-15T03:37:55.251Z,76.26
2019-02-15T03:40:25.271Z,76.11
2019-02-15T03:42:53.725Z,75.90
2019-02-15T03:45:22.203Z,75.79
2019-02-15T03:47:50.615Z,75.80
2019-02-15T03:50:19.431Z,75.71
2019-02-15T03:52:48.211Z,75.62
2019-02-15T03:55:16.645Z,75.61
2019-02-15T03:57:45.375Z,75.57
2019-02-15T04:00:13.968Z,75.50
2019-02-15T04:02:42.415Z,75.54
2019-02-15T04:05:10.967Z,75.61
2019-02-15T04:07:39.508Z,75.57
2019-02-15T04:10:09.537Z,75.74
2019-02-15T04:12:37.976Z,75.78
2019-02-15T04:15:07.502Z,75.82
2019-02-15T04:17:36.158Z,75.70
2019-02-15T04:20:07.003Z,75.81
2019-02-15T04:22:35.455Z,75.90
2019-02-15T04:25:04.448Z,76.00
2019-02-15T04:27:32.904Z,75.97
2019-02-15T04:30:01.331Z,75.95
2019-02-15T04:32:29.698Z,76.06
2019-02-15T04:34:58.163Z,75.92
2019-02-15T04:37:26.545Z,75.96
2019-02-15T04:39:54.931Z,75.90
2019-02-15T04:42:23.392Z,75.85
2019-02-15T04:44:51.885Z,75.84
2019-02-15T04:47:20.333Z,75.63
2019-02-15T04:49:48.781Z,75.48
2019-02-15T04:52:17.186Z,75.89
2019-02-15T04:54:45.659Z,75.99
2019-02-15T04:57:14.128Z,76.08
2019-02-15T04:59:42.634Z,76.12
2019-02-15T05:02:11.110Z,76.17
2019-02-15T05:04:39.578Z,76.14
2019-02-15T05:07:08.049Z,76.04
2019-02-15T05:09:36.506Z,76.04
2019-02-15T05:12:05.101Z,76.05
2019-02-15T05:14:33.461Z,75.96
2019-02-15T05:17:01.866Z,76.02
2019-02-15T05:19:30.227Z,76.27
2019-02-15T05:21:58.909Z,76.32
2019-02-15T05:24:27.294Z,76.41
2019-02-15T05:26:55.747Z,76.36
2019-02-15T05:29:24.445Z,76.46
2019-02-15T05:31:52.900Z,76.41
2019-02-15T05:34:21.632Z,76.37
2019-02-15T05:36:50.083Z,76.38
2019-02-15T05:39:18.589Z,76.48
2019-02-15T05:41:47.297Z,76.45
2019-02-15T05:44:16.383Z,76.41
2019-02-15T05:46:44.874Z,76.52
2019-02-15T05:49:13.285Z,76.46
2019-02-15T05:51:41.941Z,75.98
2019-02-15T05:54:10.393Z,76.10
2019-02-15T05:56:38.844Z,76.48
2019-02-15T05:59:07.229Z,76.50
2019-02-15T06:01:35.943Z,76.66
2019-02-15T06:04:04.772Z,76.59
2019-02-15T06:06:33.403Z,76.52
2019-02-15T06:09:01.857Z,76.47
2019-02-15T06:11:30.274Z,76.55
2019-02-15T06:13:58.689Z,76.50
2019-02-15T06:16:27.161Z,76.42
2019-02-15T06:18:55.569Z,76.26
2019-02-15T06:21:24.050Z,76.58
2019-02-15T06:23:52.458Z,76.63
2019-02-15T06:26:20.884Z,76.73
2019-02-15T06:28:49.338Z,76.80
2019-02-15T06:31:17.839Z,76.58
2019-02-15T06:33:46.275Z,76.48
2019-02-15T06:36:14.655Z,76.77
2019-02-15T06:38:43.092Z,76.80
2019-02-15T06:41:12.399Z,76.51
2019-02-15T06:43:42.870Z,76.90
2019-02-15T06:46:11.275Z,77.02
2019-02-15T06:48:39.735Z,76.85
2019-02-15T06:51:08.258Z,76.97
2019-02-15T06:53:36.705Z,77.16
2019-02-15T06:56:05.803Z,77.06
2019-02-15T06:58:35.595Z,77.15
2019-02-15T07:01:05.687Z,77.16
2019-02-15T07:03:43.695Z,77.17
2019-02-15T07:06:11.803Z,77.12
2019-02-15T07:08:40.196Z,77.20
2019-02-15T07:11:08.560Z,76.93
2019-02-15T07:13:37.087Z,76.89
2019-02-15T07:16:05.483Z,77.33
2019-02-15T07:18:34.195Z,77.61
2019-02-15T07:21:02.578Z,77.97
2019-02-15T07:23:31.325Z,78.02
2019-02-15T07:25:59.853Z,78.35
2019-02-15T07:28:28.611Z,78.29
2019-02-15T07:30:57.040Z,78.52
2019-02-15T07:33:25.519Z,79.09
2019-02-15T07:35:53.984Z,79.13
2019-02-15T07:38:22.714Z,79.09
2019-02-15T07:40:51.168Z,79.00
2019-02-15T07:43:19.934Z,79.48
2019-02-15T07:45:48.340Z,79.31
2019-02-15T07:48:16.780Z,79.31
2019-02-15T07:50:45.219Z,78.98
2019-02-15T07:53:13.672Z,78.96
2019-02-15T07:55:42.407Z,78.61
2019-02-15T07:58:11.281Z,78.45
2019-02-15T08:00:39.688Z,78.03
2019-02-15T08:03:08.147Z,78.03
2019-02-15T08:05:36.614Z,77.11
2019-02-15T08:08:05.169Z,77.32
2019-02-15T08:10:33.557Z,77.21
2019-02-15T08:13:01.986Z,77.00
2019-02-15T08:15:36.214Z,76.73
2019-02-15T08:18:00.793Z,76.48
2019-02-15T08:20:29.544Z,76.45
2019-02-15T08:22:57.997Z,76.10
2019-02-15T08:25:26.477Z,76.11
2019-02-15T08:27:54.940Z,76.06
2019-02-15T08:30:23.710Z,75.55
2019-02-15T08:32:52.518Z,75.70
2019-02-15T08:35:21.000Z,75.79
2019-02-15T08:37:49.458Z,75.39
2019-02-15T08:40:18.111Z,75.00
2019-02-15T08:42:46.648Z,75.02
2019-02-15T08:45:15.391Z,75.21
2019-02-15T08:47:43.809Z,75.18
2019-02-15T08:50:12.616Z,74.49
2019-02-15T08:52:41.073Z,74.40
2019-02-15T08:55:11.480Z,74.52
2019-02-15T08:57:40.008Z,73.52
2019-02-15T09:00:12.812Z,71.96
2019-02-15T09:02:41.557Z,72.12
2019-02-15T09:05:11.868Z,72.28
2019-02-15T09:07:40.407Z,71.93
2019-02-15T09:10:10.706Z,71.53
2019-02-15T09:12:39.072Z,71.28
2019-02-15T09:15:13.568Z,71.63
2019-02-15T09:17:42.073Z,70.39
2019-02-15T09:20:11.897Z,70.08
2019-02-15T09:22:40.361Z,70.05
2019-02-15T09:25:10.809Z,69.99
2019-02-15T09:27:43.649Z,70.01
2019-02-15T09:30:14.249Z,69.26
2019-02-15T09:32:42.764Z,68.89
2019-02-15T09:35:12.422Z,68.56
2019-02-15T09:37:40.927Z,67.70
2019-02-15T09:40:12.090Z,67.86
2019-02-15T09:42:40.618Z,67.30
2019-02-15T09:45:11.943Z,66.24
2019-02-15T09:47:40.413Z,65.49
2019-02-15T09:50:12.027Z,64.74
2019-02-15T09:52:40.392Z,65.45
2019-02-15T09:55:09.217Z,65.54
2019-02-15T09:57:37.662Z,64.51
2019-02-15T10:00:08.683Z,63.27
2019-02-15T10:02:37.136Z,62.34
2019-02-15T10:05:06.963Z,61.95
2019-02-15T10:07:35.488Z,62.23
2019-02-15T10:10:05.338Z,62.62
2019-02-15T10:12:34.088Z,62.82
2019-02-15T10:15:02.439Z,62.67
2019-02-15T10:17:30.840Z,62.53
2019-02-15T10:19:59.225Z,61.74
2019-02-15T10:22:27.941Z,61.37
2019-02-15T10:24:56.331Z,61.42
2019-02-15T10:27:25.060Z,61.44
2019-02-15T10:29:53.589Z,59.22
2019-02-15T10:32:22.095Z,59.18
2019-02-15T10:34:50.593Z,57.44
2019-02-15T10:37:18.913Z,56.11
2019-02-15T10:39:47.320Z,57.14
2019-02-15T10:42:15.774Z,56.05
2019-02-15T10:44:44.307Z,56.67
2019-02-15T10:47:14.484Z,56.91
2019-02-15T10:49:43.100Z,56.84
2019-02-15T10:52:11.479Z,56.38
2019-02-15T10:54:40.191Z,55.03
2019-02-15T10:57:08.626Z,51.54
2019-02-15T10:59:37.138Z,51.29
2019-02-15T11:02:05.731Z,49.21
2019-02-15T11:04:34.408Z,49.14
2019-02-15T11:07:02.886Z,49.59
2019-02-15T11:09:31.651Z,50.31
2019-02-15T11:12:00.124Z,50.33
2019-02-15T11:14:28.500Z,49.57
2019-02-15T11:16:56.953Z,49.11
2019-02-15T11:19:25.465Z,49.03
2019-02-15T11:21:53.921Z,48.54
2019-02-15T11:24:22.679Z,50.25
2019-02-15T11:26:51.157Z,47.95
2019-02-15T11:29:19.530Z,47.45
2019-02-15T11:31:48.072Z,47.31
2019-02-15T11:34:16.514Z,46.91
2019-02-15T11:36:44.994Z,46.69
2019-02-15T11:39:13.467Z,45.98
2019-02-15T11:41:42.088Z,44.50
2019-02-15T11:44:10.558Z,44.34
2019-02-15T11:46:38.961Z,42.95
2019-02-15T11:49:07.402Z,43.23
2019-02-15T11:51:35.846Z,42.61
2019-02-15T11:54:04.439Z,42.77
2019-02-15T11:56:33.194Z,42.70
2019-02-15T11:59:01.600Z,42.73
2019-02-15T12:01:30.194Z,42.15
2019-02-15T12:03:58.701Z,43.58
2019-02-15T12:06:27.092Z,43.56
2019-02-15T12:08:55.453Z,44.49
2019-02-15T12:11:23.861Z,44.40
2019-02-15T12:13:52.578Z,44.97
2019-02-15T12:16:21.106Z,44.77
2019-02-15T12:18:49.562Z,44.81
2019-02-15T12:21:18.042Z,44.19
2019-02-15T12:23:46.489Z,43.22
2019-02-15T12:26:15.070Z,43.12
2019-02-15T12:28:43.509Z,43.52
2019-02-15T12:31:12.036Z,43.75
2019-02-15T12:33:40.496Z,42.31
2019-02-15T12:36:09.037Z,42.31
2019-02-15T12:38:37.511Z,42.73
2019-02-15T12:41:06.002Z,43.47
2019-02-15T12:43:34.432Z,42.82
2019-02-15T12:46:03.233Z,42.71
2019-02-15T12:48:31.641Z,42.72
2019-02-15T12:51:00.096Z,42.51
2019-02-15T12:53:28.503Z,42.34
2019-02-15T12:55:56.929Z,41.25
2019-02-15T12:58:25.493Z,42.43
2019-02-15T13:00:53.967Z,43.00
2019-02-15T13:03:22.362Z,42.34
2019-02-15T13:05:50.827Z,41.78
2019-02-15T13:08:19.210Z,40.89
2019-02-15T13:10:47.580Z,41.80
2019-02-15T13:13:16.089Z,41.79
2019-02-15T13:15:44.528Z,42.27
2019-02-15T13:18:12.970Z,40.84
2019-02-15T13:20:41.443Z,38.95
2019-02-15T13:23:10.085Z,39.92
2019-02-15T13:25:38.818Z,36.13
2019-02-15T13:28:07.269Z,37.75
2019-02-15T13:30:35.900Z,36.46
2019-02-15T13:33:04.424Z,36.52
2019-02-15T13:35:32.891Z,36.71
2019-02-15T13:38:01.275Z,36.45
2019-02-15T13:40:30.080Z,36.74
2019-02-15T13:42:58.595Z,38.15
2019-02-15T13:45:29.372Z,37.55
2019-02-15T13:47:57.263Z,36.50
2019-02-15T13:50:25.663Z,35.22
2019-02-15T13:52:54.113Z,34.77
2019-02-15T13:55:22.661Z,36.23
2019-02-15T13:57:51.121Z,37.27
2019-02-15T14:00:19.570Z,35.92
2019-02-15T14:02:48.217Z,36.22
2019-02-15T14:05:16.741Z,37.16
2019-02-15T14:07:45.282Z,36.72
2019-02-15T14:10:14.840Z,37.16
2019-02-15T14:12:43.244Z,35.98
2019-02-15T14:15:12.171Z,35.45
2019-02-15T14:17:44.736Z,35.37
2019-02-15T14:20:12.244Z,33.38
2019-02-15T14:22:40.892Z,33.08
2019-02-15T14:25:11.393Z,32.51
2019-02-15T14:27:40.175Z,32.98
2019-02-15T14:30:14.853Z,33.12
2019-02-15T14:32:45.145Z,33.13
2019-02-15T14:35:14.563Z,32.58
2019-02-15T14:37:43.074Z,33.62
2019-02-15T14:40:12.695Z,34.81
2019-02-15T14:42:41.435Z,35.46
2019-02-15T14:45:11.409Z,35.34
2019-02-15T14:47:40.053Z,35.14
2019-02-15T14:50:09.871Z,35.53
2019-02-15T14:52:38.962Z,35.18
2019-02-15T14:55:09.273Z,36.30
2019-02-15T14:57:37.765Z,35.92
2019-02-15T15:00:15.929Z,35.49
2019-02-15T15:02:44.768Z,36.28
2019-02-15T15:05:16.054Z,36.96
2019-02-15T15:07:44.508Z,37.27
2019-02-15T15:10:13.163Z,37.38
2019-02-15T15:12:41.672Z,37.87
2019-02-15T15:15:15.536Z,38.45
2019-02-15T15:17:43.997Z,38.70
2019-02-15T15:20:13.343Z,38.91
2019-02-15T15:22:41.848Z,38.93
2019-02-15T15:25:14.399Z,39.18
2019-02-15T15:27:42.929Z,39.72
2019-02-15T15:30:14.301Z,39.80
2019-02-15T15:32:42.957Z,40.37
2019-02-15T15:35:12.212Z,39.39
2019-02-15T15:37:40.790Z,40.65
2019-02-15T15:40:11.731Z,40.69
2019-02-15T15:42:40.194Z,39.55
2019-02-15T15:45:10.914Z,40.33
2019-02-15T15:47:39.586Z,40.85
2019-02-15T15:50:10.199Z,41.11
2019-02-15T15:52:38.781Z,39.02
2019-02-15T15:55:09.910Z,40.01
2019-02-15T15:57:38.277Z,41.40
2019-02-15T16:00:14.742Z,42.15
2019-02-15T16:02:43.851Z,43.20
2019-02-15T16:05:12.526Z,44.09
2019-02-15T16:07:43.252Z,44.79
2019-02-15T16:10:12.663Z,45.52
2019-02-15T16:12:41.102Z,45.64
2019-02-15T16:15:11.572Z,45.68
2019-02-15T16:17:40.086Z,45.92
2019-02-15T16:20:10.723Z,46.17
2019-02-15T16:22:39.300Z,46.59
2019-02-15T16:25:08.902Z,46.93
2019-02-15T16:27:37.357Z,47.39
2019-02-15T16:30:12.230Z,47.86
2019-02-15T16:32:40.788Z,48.28
2019-02-15T16:35:09.721Z,48.71
2019-02-15T16:37:38.193Z,49.02
2019-02-15T16:40:14.851Z,49.23
2019-02-15T16:42:43.482Z,49.56
2019-02-15T16:45:16.254Z,49.92
2019-02-15T16:47:44.816Z,50.19
2019-02-15T16:50:13.734Z,50.59
2019-02-15T16:52:42.200Z,50.93
2019-02-15T16:55:13.202Z,51.19
2019-02-15T16:57:41.169Z,51.36
2019-02-15T17:00:11.787Z,51.63
2019-02-15T17:02:40.388Z,51.85
2019-02-15T17:05:09.160Z,52.06
2019-02-15T17:07:37.775Z,52.31
2019-02-15T17:10:10.873Z,52.56
2019-02-15T17:12:39.441Z,52.71
2019-02-15T17:15:11.045Z,52.92
2019-02-15T17:17:39.614Z,53.01
2019-02-15T17:20:09.446Z,53.12
2019-02-15T17:22:37.929Z,53.22
2019-02-15T17:25:12.794Z,53.37
2019-02-15T17:27:41.383Z,53.56
2019-02-15T17:30:12.910Z,53.76
2019-02-15T17:32:41.351Z,53.96
2019-02-15T17:35:17.049Z,54.17
2019-02-15T17:37:45.576Z,54.40
2019-02-15T17:40:17.412Z,54.45
2019-02-15T17:42:45.941Z,54.63
2019-02-15T17:45:14.510Z,54.80
2019-02-15T17:47:43.027Z,54.97
2019-02-15T17:50:12.259Z,55.13
2019-02-15T17:52:40.740Z,55.34
2019-02-15T17:55:10.161Z,55.50
2019-02-15T17:57:39.037Z,55.63
2019-02-15T18:00:12.642Z,55.76
2019-02-15T18:02:41.540Z,56.17
2019-02-15T18:05:12.271Z,56.45
2019-02-15T18:07:40.759Z,56.64
2019-02-15T18:10:09.211Z,56.63
2019-02-15T18:12:37.767Z,56.56
2019-02-15T18:15:06.764Z,56.66
2019-02-15T18:17:35.401Z,56.86
2019-02-15T18:20:04.793Z,57.13
2019-02-15T18:22:33.188Z,57.35
2019-02-15T18:25:01.736Z,57.50
2019-02-15T18:27:30.123Z,57.67
2019-02-15T18:29:58.529Z,57.96
2019-02-15T18:32:27.328Z,58.17
2019-02-15T18:34:55.998Z,58.49
2019-02-15T18:37:24.591Z,58.66
2019-02-15T18:39:53.177Z,58.79
2019-02-15T18:42:21.634Z,58.87
2019-02-15T18:44:50.173Z,58.87
2019-02-15T18:47:18.561Z,58.80
2019-02-15T18:49:47.441Z,58.69
2019-02-15T18:52:15.973Z,58.71
2019-02-15T18:54:44.340Z,59.00
2019-02-15T18:57:12.811Z,59.09
2019-02-15T18:59:41.189Z,59.05
2019-02-15T19:02:09.777Z,59.21
2019-02-15T19:04:38.278Z,59.70
2019-02-15T19:07:06.694Z,59.78
2019-02-15T19:09:35.159Z,59.69
2019-02-15T19:12:03.764Z,60.01
2019-02-15T19:14:32.281Z,60.14
2019-02-15T19:17:00.648Z,59.99
2019-02-15T19:19:29.522Z,59.43
2019-02-15T19:21:58.055Z,58.38
2019-02-15T19:24:26.503Z,55.94
2019-02-15T19:26:54.865Z,54.71
2019-02-15T19:29:23.279Z,54.17
2019-02-15T19:31:51.639Z,54.19
2019-02-15T19:34:20.113Z,54.14
2019-02-15T19:36:48.827Z,54.24
2019-02-15T19:39:17.310Z,54.31
2019-02-15T19:41:45.674Z,54.16
2019-02-15T19:44:14.143Z,54.34
2019-02-15T19:46:42.826Z,54.32
2019-02-15T19:49:11.191Z,54.70
2019-02-15T19:51:39.686Z,54.50
2019-02-15T19:54:08.158Z,54.68
2019-02-15T19:56:36.591Z,55.01
2019-02-15T19:59:04.991Z,55.40
2019-02-15T20:01:33.636Z,55.38
2019-02-15T20:04:02.186Z,55.59
2019-02-15T20:06:30.738Z,55.83
2019-02-15T20:08:59.172Z,55.99
2019-02-15T20:11:28.506Z,56.21
2019-02-15T20:13:56.960Z,56.10
2019-02-15T20:16:25.705Z,56.58
2019-02-15T20:18:54.178Z,56.51
2019-02-15T20:21:22.580Z,56.61
2019-02-15T20:23:51.330Z,56.60
2019-02-15T20:26:19.756Z,56.80
2019-02-15T20:28:48.170Z,56.69
2019-02-15T20:31:16.609Z,56.64
2019-02-15T20:33:45.070Z,56.78
2019-02-15T20:36:13.525Z,56.79
2019-02-15T20:38:42.238Z,56.83
2019-02-15T20:41:10.672Z,56.84
2019-02-15T20:43:39.628Z,56.92
2019-02-15T20:46:08.100Z,56.79
2019-02-15T20:48:36.540Z,56.92
2019-02-15T20:51:05.374Z,57.11
2019-02-15T20:53:33.867Z,57.34
2019-02-15T20:56:02.272Z,57.46
2019-02-15T20:58:30.686Z,57.45
2019-02-15T21:00:59.206Z,57.72
2019-02-15T21:03:27.657Z,57.77
2019-02-15T21:05:56.017Z,58.05
2019-02-15T21:08:26.535Z,58.11
2019-02-15T21:10:55.704Z,58.20
2019-02-15T21:13:24.190Z,58.36
2019-02-15T21:15:52.594Z,58.48
2019-02-15T21:18:20.998Z,58.64
2019-02-15T21:20:49.430Z,58.78
2019-02-15T21:23:17.846Z,58.87
2019-02-15T21:25:46.610Z,58.92
2019-02-15T21:28:15.416Z,59.08
2019-02-15T21:30:43.890Z,59.15
2019-02-15T21:33:12.325Z,59.31
2019-02-15T21:35:41.039Z,59.47
2019-02-15T21:38:09.563Z,59.77
2019-02-15T21:40:38.096Z,60.03
2019-02-15T21:43:06.542Z,60.26
2019-02-15T21:45:35.263Z,60.29
2019-02-15T21:48:03.701Z,60.66
2019-02-15T21:50:32.117Z,60.74
2019-02-15T21:53:00.735Z,60.93
2019-02-15T21:55:29.177Z,61.06
2019-02-15T21:58:01.600Z,61.37
2019-02-15T22:00:28.341Z,61.62
2019-02-15T22:02:56.766Z,61.73
2019-02-15T22:05:25.217Z,61.82
2019-02-15T22:07:53.661Z,61.99
2019-02-15T22:10:22.502Z,62.07
2019-02-15T22:12:50.925Z,62.21
2019-02-15T22:15:19.722Z,62.39
2019-02-15T22:17:48.313Z,62.61
2019-02-15T22:20:26.014Z,62.89
2019-02-15T22:22:47.868Z,63.10
2019-02-15T22:25:16.473Z,63.25
2019-02-15T22:27:44.974Z,63.29
2019-02-15T22:30:15.463Z,63.36
2019-02-15T22:32:43.939Z,63.45
2019-02-15T22:35:12.559Z,63.56
2019-02-15T22:37:41.380Z,63.71
2019-02-15T22:40:29.668Z,63.62
2019-02-15T22:43:04.148Z,63.69
2019-02-15T22:45:32.652Z,63.68
2019-02-15T22:48:01.037Z,63.75
2019-02-15T22:50:35.761Z,63.80
2019-02-15T22:52:59.598Z,63.89
2019-02-15T22:55:28.060Z,63.96
2019-02-15T22:57:56.435Z,63.98
2019-02-15T23:00:32.369Z,64.08
2019-02-15T23:03:01.089Z,64.08
2019-02-15T23:05:29.545Z,64.12
2019-02-15T23:07:57.980Z,64.31
2019-02-15T23:10:26.530Z,64.34
2019-02-15T23:12:54.961Z,64.50
2019-02-15T23:15:23.438Z,64.58
2019-02-15T23:17:51.819Z,64.58
2019-02-15T23:20:20.279Z,64.72
2019-02-15T23:22:48.664Z,64.82
2019-02-15T23:25:17.064Z,64.87
2019-02-15T23:27:45.441Z,64.99
2019-02-15T23:30:13.819Z,65.34
2019-02-15T23:32:42.254Z,65.27
2019-02-15T23:35:11.012Z,65.39
2019-02-15T23:37:39.709Z,65.65
2019-02-15T23:40:08.138Z,65.63
2019-02-15T23:42:36.894Z,65.64
2019-02-15T23:45:06.008Z,65.62
2019-02-15T23:47:34.417Z,65.61
2019-02-15T23:50:02.803Z,65.67
2019-02-15T23:52:31.265Z,65.71
2019-02-15T23:55:01.499Z,65.80
2019-02-15T23:57:30.252Z,65.72
2019-02-15T23:59:59.074Z,65.56
